Syoueimaru — JL6084 — position and weather

sailwx.info

Track history (hours):
 
Tides and Currents Weather Stations Pressure Air Temp Water Temp Dewpoint Dewpoint Depression Visibility Wind Speed Wind Dir Waves Ship Positions

Syoueimaru

Last reported at 2017-Mar-31 03:34 UTC. Time now 2017-May-28 04:45 UTC.
Position N 35°17' E 139°45'.
Warning: this ship's position is 58 days out of date.

Length 79 m; draft 4.1 m.

Type: Other ship. MMSI: 431500094.

Date/timePositionNaut miles runAvg speedWind from/ knotsBaromVisibWave heightAir tempDewpointWater temp
2017-Mar-31 03:34N 35°17' E 139°45'10 9.8
2017-Mar-31 02:34N 35°27' E 139°43'2 2.2
2017-Mar-31 01:33N 35°29' E 139°43'0 0.0
2017-Mar-31 00:34N 35°29' E 139°43'0 0.0
2017-Mar-30 23:34N 35°29' E 139°43'0 0.1
2017-Mar-30 22:34N 35°29' E 139°43'6 6.4
2017-Mar-30 21:34N 35°23' E 139°45'0 0.0
2017-Mar-30 20:33N 35°23' E 139°45'0 0.0
2017-Mar-30 19:32N 35°23' E 139°45'0 0.0
2017-Mar-30 18:32N 35°23' E 139°45'0 0.0
2017-Mar-30 17:32N 35°23' E 139°45'0 0.0
2017-Mar-30 16:32N 35°23' E 139°45'0 0.1
2017-Mar-30 15:32N 35°23' E 139°45'0 0.0
2017-Mar-30 14:32N 35°23' E 139°45'0 0.0
2017-Mar-30 13:32N 35°23' E 139°45'8 7.8
2017-Mar-30 12:33N 35°16' E 139°47'  
2017-Mar-25 11:18N 35°15' E 139°46'810.2
2017-Mar-25 10:33N 35°22' E 139°42'7 7.0
2017-Mar-25 09:34N 35°29' E 139°43'0 0.0
2017-Mar-25 08:33N 35°29' E 139°43'0 0.0
2017-Mar-25 07:34N 35°29' E 139°43'0 0.0
2017-Mar-25 06:34N 35°29' E 139°43'0 0.1
2017-Mar-25 05:34N 35°29' E 139°43'6 5.5
2017-Mar-25 04:32N 35°24' E 139°45'0 0.0
2017-Mar-25 03:32N 35°24' E 139°45'0 0.0
2017-Mar-25 02:32N 35°24' E 139°45'0 0.0
2017-Mar-25 01:32N 35°24' E 139°45'0 0.0
2017-Mar-25 00:32N 35°24' E 139°45'0 0.0
2017-Mar-24 23:32N 35°24' E 139°45'0 0.0
2017-Mar-24 22:29N 35°24' E 139°45'0 0.0
2017-Mar-24 21:32N 35°24' E 139°45'0 0.0
2017-Mar-24 20:32N 35°24' E 139°45'0 0.0
2017-Mar-24 19:32N 35°24' E 139°45'0 0.0
2017-Mar-24 18:32N 35°24' E 139°45'0 0.0
2017-Mar-24 17:32N 35°24' E 139°45'0 0.0
2017-Mar-24 16:32N 35°24' E 139°45'0 0.0
2017-Mar-24 15:32N 35°24' E 139°45'0 0.0
2017-Mar-24 14:32N 35°24' E 139°45'7 7.2
2017-Mar-24 13:33N 35°17' E 139°45'  
Track history (hours):
 
Tides and Currents Weather Stations Pressure Air Temp Water Temp Dewpoint Dewpoint Depression Visibility Wind Speed Wind Dir Waves Ship Positions

Syoueimaru

Last reported at 2017-Mar-31 03:34 UTC. Time now 2017-May-28 04:45 UTC.
Position N 35°17' E 139°45'.
Warning: this ship's position is 58 days out of date.

Length 79 m; draft 4.1 m.

Type: Other ship. MMSI: 431500094.

Date/timePositionNaut miles runAvg speedWind from/ knotsBaromVisibWave heightAir tempDewpointWater temp
2017-Mar-31 03:34N 35°17' E 139°45'10 9.8
2017-Mar-31 02:34N 35°27' E 139°43'2 2.2
2017-Mar-31 01:33N 35°29' E 139°43'0 0.0
2017-Mar-31 00:34N 35°29' E 139°43'0 0.0
2017-Mar-30 23:34N 35°29' E 139°43'0 0.1
2017-Mar-30 22:34N 35°29' E 139°43'6 6.4
2017-Mar-30 21:34N 35°23' E 139°45'0 0.0
2017-Mar-30 20:33N 35°23' E 139°45'0 0.0
2017-Mar-30 19:32N 35°23' E 139°45'0 0.0
2017-Mar-30 18:32N 35°23' E 139°45'0 0.0
2017-Mar-30 17:32N 35°23' E 139°45'0 0.0
2017-Mar-30 16:32N 35°23' E 139°45'0 0.1
2017-Mar-30 15:32N 35°23' E 139°45'0 0.0
2017-Mar-30 14:32N 35°23' E 139°45'0 0.0
2017-Mar-30 13:32N 35°23' E 139°45'8 7.8
2017-Mar-30 12:33N 35°16' E 139°47'  
2017-Mar-25 11:18N 35°15' E 139°46'810.2
2017-Mar-25 10:33N 35°22' E 139°42'7 7.0
2017-Mar-25 09:34N 35°29' E 139°43'0 0.0
2017-Mar-25 08:33N 35°29' E 139°43'0 0.0
2017-Mar-25 07:34N 35°29' E 139°43'0 0.0
2017-Mar-25 06:34N 35°29' E 139°43'0 0.1
2017-Mar-25 05:34N 35°29' E 139°43'6 5.5
2017-Mar-25 04:32N 35°24' E 139°45'0 0.0
2017-Mar-25 03:32N 35°24' E 139°45'0 0.0
2017-Mar-25 02:32N 35°24' E 139°45'0 0.0
2017-Mar-25 01:32N 35°24' E 139°45'0 0.0
2017-Mar-25 00:32N 35°24' E 139°45'0 0.0
2017-Mar-24 23:32N 35°24' E 139°45'0 0.0
2017-Mar-24 22:29N 35°24' E 139°45'0 0.0
2017-Mar-24 21:32N 35°24' E 139°45'0 0.0
2017-Mar-24 20:32N 35°24' E 139°45'0 0.0
2017-Mar-24 19:32N 35°24' E 139°45'0 0.0
2017-Mar-24 18:32N 35°24' E 139°45'0 0.0
2017-Mar-24 17:32N 35°24' E 139°45'0 0.0
2017-Mar-24 16:32N 35°24' E 139°45'0 0.0
2017-Mar-24 15:32N 35°24' E 139°45'0 0.0
2017-Mar-24 14:32N 35°24' E 139°45'7 7.2
2017-Mar-24 13:33N 35°17' E 139°45'  

Dump ship's entire track history